createdAt,value
2022-11-06T00:00:36.934Z,14.52
2022-11-06T00:03:05.883Z,14.37
2022-11-06T00:05:51.860Z,14.25
2022-11-06T00:08:30.258Z,14.29
2022-11-06T00:10:58.867Z,14.21
2022-11-06T00:13:27.429Z,14.22
2022-11-06T00:15:55.863Z,13.94
2022-11-06T00:18:27.280Z,14.23
2022-11-06T00:20:55.619Z,13.74
2022-11-06T00:23:23.960Z,13.72
2022-11-06T00:25:56.634Z,13.87
2022-11-06T00:28:25.123Z,13.44
2022-11-06T00:31:02.150Z,13.71
2022-11-06T00:33:30.437Z,13.22
2022-11-06T00:35:59.030Z,12.54
2022-11-06T00:38:27.801Z,11.98
2022-11-06T00:40:57.697Z,12.03
2022-11-06T00:43:26.008Z,11.43
2022-11-06T00:45:54.658Z,11.99
2022-11-06T00:48:22.915Z,11.76
2022-11-06T00:50:51.464Z,12.03
2022-11-06T00:53:19.817Z,12.63
2022-11-06T00:55:48.094Z,12.12
2022-11-06T00:58:18.112Z,11.77
2022-11-06T01:00:46.390Z,11.97
2022-11-06T01:03:14.694Z,12.33
2022-11-06T01:05:43.058Z,11.90
2022-11-06T01:08:11.677Z,12.20
2022-11-06T01:10:40.147Z,12.33
2022-11-06T01:13:08.449Z,12.82
2022-11-06T01:15:38.558Z,12.33
2022-11-06T01:18:06.855Z,12.65
2022-11-06T01:20:35.308Z,11.56
2022-11-06T01:23:03.673Z,11.73
2022-11-06T01:25:32.226Z,11.65
2022-11-06T01:28:00.482Z,10.94
2022-11-06T01:30:28.740Z,10.79
2022-11-06T01:32:58.349Z,10.86
2022-11-06T01:35:26.607Z,10.45
2022-11-06T01:37:54.893Z,10.98
2022-11-06T01:40:23.124Z,11.58
2022-11-06T01:42:51.402Z,12.02
2022-11-06T01:45:28.415Z,12.01
2022-11-06T01:47:58.354Z,11.85
2022-11-06T01:50:26.941Z,12.03
2022-11-06T01:52:55.225Z,12.33
2022-11-06T01:55:26.643Z,11.18
2022-11-06T01:57:56.481Z,11.00
2022-11-06T02:00:26.191Z,11.78
2022-11-06T02:02:54.570Z,11.78
2022-11-06T02:05:24.295Z,12.16
2022-11-06T02:07:53.268Z,12.30
2022-11-06T02:10:21.519Z,11.38
2022-11-06T02:12:58.077Z,11.92
2022-11-06T02:15:32.795Z,11.86
2022-11-06T02:18:11.552Z,12.04
2022-11-06T02:20:48.040Z,12.02
2022-11-06T02:23:39.603Z,11.73
2022-11-06T02:26:20.856Z,12.02
2022-11-06T02:28:52.953Z,12.08
2022-11-06T02:31:26.112Z,12.09
2022-11-06T02:33:57.016Z,12.18
2022-11-06T02:36:30.124Z,11.63
2022-11-06T02:39:00.270Z,11.16
2022-11-06T02:41:33.217Z,10.68
2022-11-06T02:44:04.831Z,11.04
2022-11-06T02:46:35.488Z,11.43
2022-11-06T02:49:04.682Z,11.95
2022-11-06T02:51:34.472Z,12.14
2022-11-06T02:54:03.951Z,12.25
2022-11-06T02:56:37.031Z,12.23
2022-11-06T02:59:09.956Z,11.57
2022-11-06T03:01:40.976Z,12.00
2022-11-06T03:04:13.290Z,11.44
2022-11-06T03:06:44.969Z,11.36
2022-11-06T03:09:16.010Z,11.56
2022-11-06T03:11:44.385Z,11.58
2022-11-06T03:14:19.751Z,11.73
2022-11-06T03:16:54.558Z,11.12
2022-11-06T03:19:27.794Z,11.67
2022-11-06T03:22:02.171Z,11.65
2022-11-06T03:24:33.343Z,11.93
2022-11-06T03:27:07.247Z,11.87
2022-11-06T03:29:40.487Z,11.86
2022-11-06T03:32:16.811Z,11.04
2022-11-06T03:34:51.649Z,11.09
2022-11-06T03:37:34.421Z,11.50
2022-11-06T03:40:05.153Z,11.81
2022-11-06T03:42:33.573Z,12.20
2022-11-06T03:45:05.335Z,12.22
2022-11-06T03:47:35.471Z,12.54
2022-11-06T03:50:08.101Z,12.54
2022-11-06T03:52:42.536Z,12.63
2022-11-06T03:55:16.168Z,12.56
2022-11-06T03:57:46.404Z,11.81
2022-11-06T04:00:17.143Z,11.01
2022-11-06T04:02:46.710Z,10.96
2022-11-06T04:05:17.431Z,11.01
2022-11-06T04:08:08.565Z,11.92
2022-11-06T04:11:05.937Z,11.51
2022-11-06T04:13:53.170Z,11.55
2022-11-06T04:16:23.697Z,10.54
2022-11-06T04:18:52.087Z,9.98
2022-11-06T04:21:28.125Z,10.14
2022-11-06T04:24:22.204Z,10.08
2022-11-06T04:26:59.834Z,9.82
2022-11-06T04:29:36.138Z,10.31
2022-11-06T04:32:11.562Z,10.79
2022-11-06T04:34:44.891Z,10.96
2022-11-06T04:37:18.316Z,11.73
2022-11-06T04:39:53.413Z,11.75
2022-11-06T04:42:27.259Z,11.28
2022-11-06T04:44:59.968Z,10.80
2022-11-06T04:47:29.835Z,10.67
2022-11-06T04:50:00.312Z,11.39
2022-11-06T04:52:29.910Z,10.34
2022-11-06T04:54:59.456Z,10.16
2022-11-06T04:57:28.089Z,10.71
2022-11-06T04:59:56.988Z,9.97
2022-11-06T05:02:25.701Z,9.33
2022-11-06T05:04:55.429Z,9.80
2022-11-06T05:07:24.279Z,9.70
2022-11-06T05:09:52.585Z,10.07
2022-11-06T05:12:20.904Z,10.08
2022-11-06T05:14:49.287Z,10.86
2022-11-06T05:17:17.604Z,10.68
2022-11-06T05:19:45.896Z,10.33
2022-11-06T05:22:33.210Z,11.30
2022-11-06T05:25:01.597Z,10.62
2022-11-06T05:27:30.003Z,11.40
2022-11-06T05:29:58.305Z,11.77
2022-11-06T05:32:26.652Z,12.02
2022-11-06T05:34:54.987Z,12.01
2022-11-06T05:37:24.788Z,12.07
2022-11-06T05:39:53.095Z,11.58
2022-11-06T05:42:21.553Z,11.15
2022-11-06T05:44:49.852Z,11.67
2022-11-06T05:47:18.130Z,11.06
2022-11-06T05:49:46.411Z,11.11
2022-11-06T05:52:14.732Z,11.44
2022-11-06T05:54:44.413Z,11.51
2022-11-06T05:57:12.735Z,10.80
2022-11-06T05:59:41.026Z,10.26
2022-11-06T06:02:09.554Z,10.75
2022-11-06T06:04:37.959Z,10.50
2022-11-06T06:07:06.275Z,10.80
2022-11-06T06:09:34.594Z,10.78
2022-11-06T06:12:04.705Z,11.00
2022-11-06T06:14:32.958Z,11.17
2022-11-06T06:17:01.232Z,10.87
2022-11-06T06:19:29.491Z,11.13
2022-11-06T06:21:57.755Z,10.36
2022-11-06T06:24:26.189Z,10.80
2022-11-06T06:26:54.492Z,10.61
2022-11-06T06:29:24.163Z,10.52
2022-11-06T06:31:52.509Z,9.86
2022-11-06T06:34:20.908Z,9.84
2022-11-06T06:36:50.650Z,10.02
2022-11-06T06:39:20.437Z,10.82
2022-11-06T06:41:49.174Z,10.67
2022-11-06T06:44:17.924Z,10.67
2022-11-06T06:46:47.587Z,10.50
2022-11-06T06:49:15.959Z,11.41
2022-11-06T06:51:44.232Z,10.77
2022-11-06T06:54:12.547Z,11.03
2022-11-06T06:56:40.841Z,11.16
2022-11-06T06:59:09.665Z,10.93
2022-11-06T07:01:38.142Z,11.13
2022-11-06T07:04:08.095Z,11.45
2022-11-06T07:06:36.370Z,11.04
2022-11-06T07:09:04.938Z,11.70
2022-11-06T07:11:33.207Z,10.79
2022-11-06T07:14:01.690Z,10.74
2022-11-06T07:16:32.446Z,11.44
2022-11-06T07:19:00.707Z,11.40
2022-11-06T07:21:30.329Z,11.11
2022-11-06T07:23:58.791Z,11.96
2022-11-06T07:26:27.138Z,10.81
2022-11-06T07:28:55.419Z,10.40
2022-11-06T07:31:24.198Z,10.77
2022-11-06T07:33:52.491Z,10.64
2022-11-06T07:36:22.119Z,10.54
2022-11-06T07:38:51.782Z,11.30
2022-11-06T07:41:21.087Z,12.29
2022-11-06T07:43:50.396Z,12.86
2022-11-06T07:46:18.710Z,12.59
2022-11-06T07:48:47.067Z,13.25
2022-11-06T07:51:15.356Z,12.71
2022-11-06T07:53:43.622Z,12.37
2022-11-06T07:56:13.445Z,12.70
2022-11-06T07:58:41.969Z,12.96
2022-11-06T08:01:18.623Z,13.44
2022-11-06T08:03:47.433Z,13.87
2022-11-06T08:06:15.771Z,12.68
2022-11-06T08:08:44.148Z,13.37
2022-11-06T08:11:14.374Z,13.76
2022-11-06T08:13:44.078Z,13.91
2022-11-06T08:16:14.305Z,13.28
2022-11-06T08:18:43.083Z,12.77
2022-11-06T08:21:11.432Z,14.62
2022-11-06T08:23:39.719Z,14.64
2022-11-06T08:26:08.311Z,14.73
2022-11-06T08:28:38.010Z,15.13
2022-11-06T08:31:06.761Z,14.10
2022-11-06T08:33:35.633Z,14.68
2022-11-06T08:36:05.234Z,14.48
2022-11-06T08:38:33.707Z,14.32
2022-11-06T08:41:05.863Z,14.00
2022-11-06T08:43:34.373Z,14.02
2022-11-06T08:46:04.667Z,13.84
2022-11-06T08:48:34.543Z,13.96
2022-11-06T08:51:02.932Z,13.73
2022-11-06T08:53:31.361Z,14.16
2022-11-06T08:55:59.909Z,14.55
2022-11-06T08:58:28.214Z,15.49
2022-11-06T09:00:56.551Z,16.12
2022-11-06T09:03:26.333Z,16.38
2022-11-06T09:05:54.637Z,15.77
2022-11-06T09:08:24.214Z,14.81
2022-11-06T09:10:58.175Z,15.64
2022-11-06T09:13:27.414Z,15.81
2022-11-06T09:15:55.793Z,15.47
2022-11-06T09:18:24.111Z,14.90
2022-11-06T09:20:57.007Z,15.18
2022-11-06T09:23:25.690Z,14.13
2022-11-06T09:25:54.172Z,14.52
2022-11-06T09:28:22.486Z,15.44
2022-11-06T09:30:50.899Z,14.85
2022-11-06T09:33:19.651Z,14.48
2022-11-06T09:35:48.333Z,14.51
2022-11-06T09:38:19.110Z,15.30
2022-11-06T09:40:50.748Z,14.76
2022-11-06T09:44:02.866Z,15.40
2022-11-06T09:46:24.131Z,14.84
2022-11-06T09:48:56.688Z,15.12
2022-11-06T09:51:32.780Z,14.95
2022-11-06T09:54:08.543Z,15.38
2022-11-06T09:56:39.960Z,16.16
2022-11-06T09:59:13.149Z,15.46
2022-11-06T10:01:44.085Z,15.88
2022-11-06T10:04:33.632Z,16.28
2022-11-06T10:07:01.919Z,16.85
2022-11-06T10:09:32.138Z,15.82
2022-11-06T10:12:05.988Z,16.18
2022-11-06T10:14:45.332Z,15.82
2022-11-06T10:17:21.240Z,15.37
2022-11-06T10:19:51.436Z,15.39
2022-11-06T10:22:22.723Z,15.72
2022-11-06T10:25:00.061Z,15.35
2022-11-06T10:27:29.809Z,16.24
2022-11-06T10:30:11.009Z,16.01
2022-11-06T10:33:03.164Z,17.17
2022-11-06T10:35:35.719Z,16.05
2022-11-06T10:38:07.552Z,16.59
2022-11-06T10:40:37.890Z,17.02
2022-11-06T10:43:15.776Z,16.90
2022-11-06T10:45:48.558Z,16.70
2022-11-06T10:48:28.982Z,17.25
2022-11-06T10:51:09.713Z,16.14
2022-11-06T10:53:47.207Z,16.21
2022-11-06T10:56:47.970Z,16.15
2022-11-06T10:59:16.171Z,15.84
2022-11-06T11:01:44.586Z,15.90
2022-11-06T11:04:13.050Z,15.90
2022-11-06T11:06:41.594Z,15.98
2022-11-06T11:09:30.338Z,16.62
2022-11-06T11:12:00.673Z,16.72
2022-11-06T11:14:30.344Z,15.87
2022-11-06T11:17:01.455Z,15.25
2022-11-06T11:19:37.371Z,15.91
2022-11-06T11:22:18.122Z,15.86
2022-11-06T11:25:00.863Z,16.93
2022-11-06T11:27:31.146Z,16.34
2022-11-06T11:29:59.622Z,15.93
2022-11-06T11:32:30.442Z,16.28
2022-11-06T11:34:59.427Z,15.89
2022-11-06T11:37:29.477Z,16.30
2022-11-06T11:40:21.875Z,15.87
2022-11-06T11:42:51.603Z,16.60
2022-11-06T11:45:21.281Z,15.92
2022-11-06T11:47:51.375Z,16.01
2022-11-06T11:50:31.262Z,16.09
2022-11-06T11:53:08.818Z,15.86
2022-11-06T11:55:42.092Z,15.78
2022-11-06T11:58:21.297Z,15.99
2022-11-06T12:00:54.151Z,15.43
2022-11-06T12:03:24.064Z,16.13
2022-11-06T12:05:53.471Z,16.56
2022-11-06T12:08:25.465Z,15.79
2022-11-06T12:10:53.781Z,16.65
2022-11-06T12:13:24.804Z,15.71
2022-11-06T12:15:56.707Z,15.96
2022-11-06T12:18:28.098Z,16.37
2022-11-06T12:20:59.192Z,16.22
2022-11-06T12:23:30.923Z,17.03
2022-11-06T12:26:03.083Z,16.72
2022-11-06T12:28:34.050Z,16.83
2022-11-06T12:31:05.894Z,17.34
2022-11-06T12:34:04.548Z,16.99
2022-11-06T12:36:27.181Z,16.72
2022-11-06T12:38:58.247Z,16.33
2022-11-06T12:41:28.221Z,17.03
2022-11-06T12:43:58.485Z,16.90
2022-11-06T12:46:37.187Z,16.89
2022-11-06T12:49:23.398Z,17.58
2022-11-06T12:52:00.733Z,16.70
2022-11-06T12:54:40.614Z,16.92
2022-11-06T12:57:16.937Z,16.94
2022-11-06T12:59:56.170Z,16.68
2022-11-06T13:02:33.127Z,16.65
2022-11-06T13:05:03.449Z,17.59
2022-11-06T13:07:39.812Z,17.18
2022-11-06T13:10:21.256Z,17.51
2022-11-06T13:12:59.727Z,17.22
2022-11-06T13:15:33.651Z,17.11
2022-11-06T13:18:08.802Z,17.44
2022-11-06T13:20:43.385Z,17.00
2022-11-06T13:23:14.621Z,16.98
2022-11-06T13:25:50.506Z,17.42
2022-11-06T13:28:31.320Z,17.74
2022-11-06T13:31:03.756Z,17.47
2022-11-06T13:33:35.966Z,17.31
2022-11-06T13:36:04.600Z,17.79
2022-11-06T13:38:37.447Z,17.45
2022-11-06T13:41:12.905Z,17.21
2022-11-06T13:43:44.997Z,17.26
2022-11-06T13:46:23.505Z,17.02
2022-11-06T13:48:57.269Z,17.83
2022-11-06T13:51:33.913Z,17.79
2022-11-06T13:54:04.691Z,17.65
2022-11-06T13:57:00.745Z,17.04
2022-11-06T13:59:53.506Z,16.83
2022-11-06T14:02:39.722Z,17.09
2022-11-06T14:05:24.272Z,17.21
2022-11-06T14:07:53.033Z,17.04
2022-11-06T14:10:23.553Z,16.76
2022-11-06T14:12:52.208Z,17.61
2022-11-06T14:15:27.151Z,17.33
2022-11-06T14:17:59.257Z,17.55
2022-11-06T14:20:30.332Z,17.47
2022-11-06T14:23:32.103Z,17.21
2022-11-06T14:26:01.463Z,16.89
2022-11-06T14:28:31.928Z,17.65
2022-11-06T14:31:21.552Z,16.11
2022-11-06T14:34:05.200Z,16.27
2022-11-06T14:36:36.246Z,16.38
2022-11-06T14:39:05.362Z,16.42
2022-11-06T14:42:06.193Z,16.70
2022-11-06T14:44:35.198Z,16.26
2022-11-06T14:47:04.880Z,16.81
2022-11-06T14:49:42.078Z,17.17
2022-11-06T14:52:13.095Z,16.99
2022-11-06T14:54:42.651Z,18.20
2022-11-06T14:57:16.506Z,16.99
2022-11-06T14:59:44.866Z,17.55
2022-11-06T15:02:19.687Z,17.18
2022-11-06T15:04:51.366Z,16.96
2022-11-06T15:08:08.596Z,16.80
2022-11-06T15:10:54.271Z,17.01
2022-11-06T15:13:31.232Z,16.57
2022-11-06T15:16:13.503Z,16.67
2022-11-06T15:18:44.260Z,16.48
2022-11-06T15:21:22.622Z,16.55
2022-11-06T15:24:02.905Z,16.55
2022-11-06T15:26:35.323Z,16.69
2022-11-06T15:29:12.853Z,16.05
2022-11-06T15:31:41.982Z,16.38
2022-11-06T15:34:15.986Z,15.84
2022-11-06T15:36:49.246Z,15.57
2022-11-06T15:39:34.096Z,16.16
2022-11-06T15:42:02.424Z,15.93
2022-11-06T15:44:30.644Z,16.12
2022-11-06T15:47:00.155Z,16.66
2022-11-06T15:49:28.439Z,15.86
2022-11-06T15:51:59.392Z,15.95
2022-11-06T15:54:36.116Z,16.47
2022-11-06T15:57:08.748Z,16.21
2022-11-06T15:59:37.055Z,15.54
2022-11-06T16:02:06.240Z,16.22
2022-11-06T16:04:34.835Z,16.36
2022-11-06T16:07:05.713Z,17.40
2022-11-06T16:09:34.343Z,17.53
2022-11-06T16:12:02.868Z,17.02
2022-11-06T16:14:31.138Z,17.26
2022-11-06T16:17:09.937Z,16.75
2022-11-06T16:19:39.492Z,17.10
2022-11-06T16:22:10.923Z,17.35
2022-11-06T16:24:44.554Z,17.40
2022-11-06T16:27:13.170Z,17.30
2022-11-06T16:29:47.382Z,17.29
2022-11-06T16:32:17.506Z,17.30
2022-11-06T16:34:47.124Z,17.19
2022-11-06T16:37:40.729Z,17.05
2022-11-06T16:40:53.637Z,16.75
2022-11-06T16:43:22.692Z,16.93
2022-11-06T16:46:02.748Z,16.80
2022-11-06T16:48:34.661Z,16.92
2022-11-06T16:51:08.254Z,16.23
2022-11-06T16:53:52.878Z,16.47
2022-11-06T16:56:25.341Z,15.64
2022-11-06T16:59:01.142Z,16.20
2022-11-06T17:01:30.760Z,16.53
2022-11-06T17:04:01.085Z,16.67
2022-11-06T17:06:30.989Z,16.63
2022-11-06T17:09:08.795Z,16.67
2022-11-06T17:11:38.840Z,16.63
2022-11-06T17:14:17.289Z,16.70
2022-11-06T17:16:46.982Z,16.66
2022-11-06T17:19:15.317Z,16.61
2022-11-06T17:21:43.604Z,16.40
2022-11-06T17:27:01.575Z,16.30
2022-11-06T17:29:29.868Z,16.25
2022-11-06T17:31:58.170Z,16.27
2022-11-06T17:34:26.492Z,16.32
2022-11-06T17:36:54.803Z,16.29
2022-11-06T17:39:24.454Z,16.18
2022-11-06T17:41:53.561Z,16.21
2022-11-06T17:44:22.402Z,16.25
2022-11-06T17:46:50.958Z,16.19
2022-11-06T17:49:19.242Z,16.41
2022-11-06T17:51:53.315Z,16.27
2022-11-06T17:54:25.389Z,16.10
2022-11-06T17:56:54.788Z,16.09
2022-11-06T17:59:23.948Z,16.05
2022-11-06T18:01:52.935Z,16.05
2022-11-06T18:04:23.418Z,15.95
2022-11-06T18:06:53.527Z,15.88
2022-11-06T18:09:24.355Z,15.50
2022-11-06T18:11:53.812Z,15.53
2022-11-06T18:14:23.617Z,15.83
2022-11-06T18:16:52.351Z,15.67
2022-11-06T18:19:23.364Z,15.57
2022-11-06T18:21:51.849Z,15.85
2022-11-06T18:24:20.179Z,15.80
2022-11-06T18:26:49.982Z,15.93
2022-11-06T18:29:18.656Z,16.07
2022-11-06T18:31:46.962Z,16.11
2022-11-06T18:34:20.240Z,16.29
2022-11-06T18:36:50.116Z,15.72
2022-11-06T18:39:18.685Z,15.83
2022-11-06T18:41:47.011Z,15.62
2022-11-06T18:44:17.963Z,15.87
2022-11-06T18:46:46.639Z,15.41
2022-11-06T18:49:15.777Z,15.44
2022-11-06T18:51:44.284Z,15.08
2022-11-06T18:54:13.324Z,15.42
2022-11-06T18:56:41.780Z,15.69
2022-11-06T18:59:14.584Z,15.86
2022-11-06T19:01:44.386Z,15.57
2022-11-06T19:04:12.863Z,15.63
2022-11-06T19:06:41.379Z,15.67
2022-11-06T19:09:10.973Z,15.71
2022-11-06T19:11:39.626Z,14.75
2022-11-06T19:14:08.142Z,14.94
2022-11-06T19:16:36.528Z,15.12
2022-11-06T19:19:07.466Z,14.14
2022-11-06T19:21:35.876Z,14.89
2022-11-06T19:24:05.849Z,15.13
2022-11-06T19:26:35.747Z,14.89
2022-11-06T19:29:05.357Z,15.28
2022-11-06T19:31:34.226Z,15.45
2022-11-06T19:34:03.642Z,14.95
2022-11-06T19:36:33.421Z,14.44
2022-11-06T19:39:02.112Z,14.65
2022-11-06T19:41:30.761Z,14.19
2022-11-06T19:43:59.077Z,14.23
2022-11-06T19:46:34.006Z,14.06
2022-11-06T19:49:04.193Z,15.13
2022-11-06T19:51:34.897Z,14.98
2022-11-06T19:54:02.968Z,15.37
2022-11-06T19:56:31.223Z,15.52
2022-11-06T19:59:00.014Z,15.40
2022-11-06T20:01:28.380Z,15.67
2022-11-06T20:03:56.818Z,15.69
2022-11-06T20:06:27.380Z,15.34
2022-11-06T20:08:56.919Z,15.38
2022-11-06T20:11:25.113Z,15.40
2022-11-06T20:13:53.442Z,15.94
2022-11-06T20:16:22.068Z,14.82
2022-11-06T20:18:54.010Z,15.18
2022-11-06T20:21:23.191Z,15.05
2022-11-06T20:23:51.496Z,15.23
2022-11-06T20:26:21.682Z,15.90
2022-11-06T20:28:51.390Z,15.73
2022-11-06T20:31:20.425Z,15.75
2022-11-06T20:33:49.607Z,15.69
2022-11-06T20:36:20.486Z,15.92
2022-11-06T20:38:48.773Z,15.76
2022-11-06T20:41:17.869Z,15.69
2022-11-06T20:43:48.215Z,15.40
2022-11-06T20:46:17.588Z,15.70
2022-11-06T20:48:46.521Z,15.78
2022-11-06T20:51:17.513Z,15.92
2022-11-06T20:53:46.379Z,16.10
2022-11-06T20:56:17.105Z,16.27
2022-11-06T20:58:46.921Z,15.96
2022-11-06T21:01:19.731Z,16.48
2022-11-06T21:03:49.558Z,16.59
2022-11-06T21:06:18.740Z,16.49
2022-11-06T21:08:47.668Z,16.44
2022-11-06T21:11:18.107Z,16.63
2022-11-06T21:13:49.422Z,16.76
2022-11-06T21:16:19.638Z,16.78
2022-11-06T21:18:48.291Z,16.88
2022-11-06T21:21:18.305Z,16.76
2022-11-06T21:23:46.571Z,16.74
2022-11-06T21:26:16.447Z,16.66
2022-11-06T21:28:45.167Z,16.59
2022-11-06T21:31:17.514Z,16.68
2022-11-06T21:33:47.390Z,16.72
2022-11-06T21:36:17.431Z,16.84
2022-11-06T21:38:45.748Z,16.77
2022-11-06T21:41:16.279Z,16.94
2022-11-06T21:43:44.916Z,16.66
2022-11-06T21:46:15.012Z,16.59
2022-11-06T21:48:47.711Z,15.83
2022-11-06T21:51:17.655Z,16.60
2022-11-06T21:54:03.529Z,16.10
2022-11-06T21:56:31.833Z,16.30
2022-11-06T21:59:01.866Z,16.07
2022-11-06T22:01:32.443Z,16.08
2022-11-06T22:04:00.913Z,15.35
2022-11-06T22:06:29.883Z,15.60
2022-11-06T22:08:59.294Z,15.60
2022-11-06T22:11:29.096Z,15.19
2022-11-06T22:13:58.955Z,15.44
2022-11-06T22:16:28.567Z,15.05
2022-11-06T22:18:59.332Z,14.80
2022-11-06T22:21:29.474Z,14.73
2022-11-06T22:23:58.333Z,14.90
2022-11-06T22:26:29.073Z,15.39
2022-11-06T22:28:58.694Z,15.63
2022-11-06T22:31:27.753Z,15.34
2022-11-06T22:33:56.173Z,14.69
2022-11-06T22:36:26.245Z,15.33
2022-11-06T22:38:54.590Z,15.04
2022-11-06T22:41:24.836Z,14.98
2022-11-06T22:43:53.550Z,14.76
2022-11-06T22:46:23.139Z,14.61
2022-11-06T22:48:52.769Z,14.80
2022-11-06T22:51:23.055Z,14.46
2022-11-06T22:56:38.722Z,14.71
2022-11-06T22:59:08.822Z,14.81
2022-11-06T23:01:41.924Z,15.04
2022-11-06T23:04:14.877Z,14.99
2022-11-06T23:06:43.858Z,14.86
2022-11-06T23:09:14.042Z,14.94
2022-11-06T23:11:42.336Z,15.05
2022-11-06T23:14:10.679Z,14.65
2022-11-06T23:16:56.537Z,14.75
2022-11-06T23:19:25.213Z,15.24
2022-11-06T23:22:13.633Z,15.02
2022-11-06T23:24:43.635Z,15.35
2022-11-06T23:27:12.432Z,15.75
2022-11-06T23:29:41.047Z,15.41
2022-11-06T23:32:09.391Z,15.32
2022-11-06T23:34:37.799Z,15.15
2022-11-06T23:37:06.244Z,15.29
2022-11-06T23:39:34.544Z,15.46
2022-11-06T23:42:04.248Z,15.36
2022-11-06T23:44:50.217Z,15.78
2022-11-06T23:47:18.766Z,15.27
2022-11-06T23:49:47.497Z,15.29
2022-11-06T23:52:15.834Z,15.41
2022-11-06T23:54:44.073Z,15.54
2022-11-06T23:57:14.162Z,15.68
2022-11-06T23:59:42.460Z,15.68
